Time;durP1;ratioP1;P1;durP2;ratioP2;P2;SDS_P1;SDS_P2;PMS_P1;PMS_P2;Temp;Humidity;BMP_temperature;BMP_pressure;BME280_temperature;BME280_humidity;BME280_pressure;Samples;Min_cycle;Max_cycle;Signal;HPM_P1;HPM_P2
2023/05/14 00:01:28;;;;;;;3.25;2.95;;;;;;;;;;5014743;28;20030;-78
2023/05/14 00:03:54;;;;;;;3.83;2.70;;;;;;;;;;5010869;28;20049;-78
2023/05/14 00:06:20;;;;;;;8.82;2.67;;;;;;;;;;4994504;28;20030;-78
2023/05/14 00:08:46;;;;;;;2.63;2.42;;;;;;;;;;5010459;28;20111;-77
2023/05/14 00:11:12;;;;;;;2.80;2.60;;;;;;;;;;4977912;28;20030;-76
2023/05/14 00:13:38;;;;;;;3.05;2.85;;;;;;;;;;5010697;28;20046;-77
2023/05/14 00:16:04;;;;;;;5.57;2.80;;;;;;;;;;5011265;28;20445;-77
2023/05/14 00:18:30;;;;;;;5.10;3.10;;;;;;;;;;5013019;28;20037;-78
2023/05/14 00:20:56;;;;;;;4.55;2.80;;;;;;;;;;5013924;28;20037;-79
2023/05/14 00:23:22;;;;;;;4.40;3.08;;;;;;;;;;5010618;28;20038;-77
2023/05/14 00:25:48;;;;;;;3.60;3.08;;;;;;;;;;5010262;28;20116;-76
2023/05/14 00:28:15;;;;;;;6.13;2.88;;;;;;;;;;5010330;28;20053;-76
2023/05/14 00:30:41;;;;;;;4.40;2.90;;;;;;;;;;5011710;28;20463;-77
2023/05/14 00:33:08;;;;;;;2.95;2.75;;;;;;;;;;5011299;28;20096;-77
2023/05/14 00:35:34;;;;;;;3.53;2.70;;;;;;;;;;5010311;28;20026;-78
2023/05/14 00:38:01;;;;;;;3.13;2.60;;;;;;;;;;5010399;28;20037;-77
2023/05/14 00:40:28;;;;;;;5.63;3.22;;;;;;;;;;5011265;28;20116;-77
2023/05/14 00:42:54;;;;;;;3.15;2.65;;;;;;;;;;5012188;28;20081;-77
2023/05/14 00:45:20;;;;;;;2.83;2.72;;;;;;;;;;5013927;28;20493;-78
2023/05/14 00:47:46;;;;;;;6.63;2.65;;;;;;;;;;5023573;28;20041;-77
2023/05/14 00:50:12;;;;;;;3.00;2.80;;;;;;;;;;5026211;28;20040;-78
2023/05/14 00:52:38;;;;;;;2.78;2.65;;;;;;;;;;5003025;28;20411;-78
2023/05/14 00:55:05;;;;;;;3.00;2.80;;;;;;;;;;5010644;28;20501;-77
2023/05/14 00:57:31;;;;;;;3.92;2.80;;;;;;;;;;5010931;28;20037;-77
2023/05/14 00:59:57;;;;;;;2.95;2.67;;;;;;;;;;5009840;28;20041;-79
2023/05/14 01:02:23;;;;;;;4.55;2.83;;;;;;;;;;5015746;28;20520;-78
2023/05/14 01:04:50;;;;;;;3.47;2.75;;;;;;;;;;5011240;28;20037;-78
2023/05/14 01:07:19;;;;;;;5.55;2.78;;;;;;;;;;4994554;28;20049;-79
2023/05/14 01:10:17;;;;;;;4.93;2.70;;;;;;;;;;5010504;28;20041;-78
2023/05/14 01:12:51;;;;;;;4.28;2.70;;;;;;;;;;4998894;28;20531;-77
2023/05/14 01:15:18;;;;;;;3.33;2.97;;;;;;;;;;4993717;28;20065;-78
2023/05/14 01:17:49;;;;;;;2.60;2.40;;;;;;;;;;5010412;28;20044;-78
2023/05/14 01:20:15;;;;;;;3.28;2.70;;;;;;;;;;4990189;28;20050;-78
2023/05/14 01:22:41;;;;;;;5.00;3.08;;;;;;;;;;4973642;28;20034;-78
2023/05/14 01:25:08;;;;;;;3.17;2.97;;;;;;;;;;4973428;28;20138;-77
2023/05/14 01:27:38;;;;;;;3.05;2.80;;;;;;;;;;4992738;28;20056;-78
2023/05/14 01:30:04;;;;;;;3.88;2.63;;;;;;;;;;4993066;28;20037;-78
2023/05/14 01:32:31;;;;;;;7.20;2.90;;;;;;;;;;5010055;28;20064;-78
2023/05/14 01:34:57;;;;;;;5.78;3.10;;;;;;;;;;4993460;28;20053;-79
2023/05/14 01:37:23;;;;;;;3.10;2.90;;;;;;;;;;4996283;28;20069;-78
2023/05/14 01:39:49;;;;;;;5.60;3.17;;;;;;;;;;5010406;28;20064;-78
2023/05/14 01:42:15;;;;;;;3.22;2.90;;;;;;;;;;4993712;28;20637;-78
2023/05/14 01:44:41;;;;;;;5.78;3.25;;;;;;;;;;5011094;28;20128;-78
2023/05/14 01:47:07;;;;;;;3.28;2.75;;;;;;;;;;5010658;28;20149;-76
2023/05/14 01:49:33;;;;;;;5.65;3.03;;;;;;;;;;4993504;28;20531;-78
2023/05/14 01:51:59;;;;;;;4.13;2.78;;;;;;;;;;5014197;28;20121;-78
2023/05/14 01:54:25;;;;;;;2.58;2.47;;;;;;;;;;5014684;28;20336;-76
2023/05/14 01:56:51;;;;;;;4.90;2.88;;;;;;;;;;5014366;28;20058;-77
2023/05/14 01:59:18;;;;;;;6.40;2.67;;;;;;;;;;4997184;28;20087;-78
2023/05/14 02:01:44;;;;;;;3.53;3.08;;;;;;;;;;5014265;28;20030;-78
2023/05/14 02:04:10;;;;;;;3.10;2.90;;;;;;;;;;5014452;28;20042;-78
2023/05/14 02:06:36;;;;;;;3.78;2.97;;;;;;;;;;5014451;28;20030;-77
2023/05/14 02:09:02;;;;;;;3.60;3.30;;;;;;;;;;5015006;28;20046;-79
2023/05/14 02:11:28;;;;;;;4.07;3.15;;;;;;;;;;5013710;28;20061;-78
2023/05/14 02:13:54;;;;;;;4.68;2.88;;;;;;;;;;5033165;28;20075;-79
2023/05/14 02:16:20;;;;;;;5.60;2.80;;;;;;;;;;5034871;28;20029;-79
2023/05/14 02:18:46;;;;;;;4.90;2.92;;;;;;;;;;5034034;28;20117;-79
2023/05/14 02:21:12;;;;;;;2.97;2.78;;;;;;;;;;5032961;28;20037;-79
2023/05/14 02:23:38;;;;;;;11.40;3.15;;;;;;;;;;5034231;28;20091;-78
2023/05/14 02:26:05;;;;;;;7.30;3.30;;;;;;;;;;5035150;28;20535;-78
2023/05/14 02:28:30;;;;;;;3.47;3.15;;;;;;;;;;5035957;28;20052;-78
2023/05/14 02:31:00;;;;;;;3.08;2.88;;;;;;;;;;5033608;28;20112;-78
2023/05/14 02:33:26;;;;;;;4.75;3.00;;;;;;;;;;5015288;28;20041;-77
2023/05/14 02:35:52;;;;;;;3.70;2.60;;;;;;;;;;5033118;28;20057;-77
2023/05/14 02:38:19;;;;;;;6.93;3.22;;;;;;;;;;5032485;28;20467;-79
2023/05/14 02:40:45;;;;;;;5.57;3.05;;;;;;;;;;5033549;28;20056;-78
2023/05/14 02:43:11;;;;;;;3.13;2.80;;;;;;;;;;5032906;28;20049;-78
2023/05/14 02:45:37;;;;;;;4.70;3.20;;;;;;;;;;5034755;28;20044;-79
2023/05/14 02:48:03;;;;;;;7.40;3.10;;;;;;;;;;5015240;28;20590;-77
2023/05/14 02:50:30;;;;;;;4.40;3.13;;;;;;;;;;5013597;28;20038;-77
2023/05/14 02:52:56;;;;;;;3.22;2.75;;;;;;;;;;4995889;28;20063;-78
2023/05/14 02:55:22;;;;;;;3.10;2.80;;;;;;;;;;5013949;28;20034;-77
2023/05/14 02:57:48;;;;;;;3.88;2.90;;;;;;;;;;5013625;28;20041;-77
2023/05/14 03:00:14;;;;;;;5.85;2.80;;;;;;;;;;5012768;28;20037;-76
2023/05/14 03:02:42;;;;;;;8.23;3.10;;;;;;;;;;4994847;28;20107;-77
2023/05/14 03:05:08;;;;;;;3.83;3.40;;;;;;;;;;4979355;28;20040;-75
2023/05/14 03:07:34;;;;;;;4.50;3.08;;;;;;;;;;4997943;28;20049;-77
2023/05/14 03:10:00;;;;;;;4.25;3.50;;;;;;;;;;4995612;28;20058;-78
2023/05/14 03:12:26;;;;;;;3.65;3.35;;;;;;;;;;5012215;28;20068;-78
2023/05/14 03:14:52;;;;;;;4.50;3.35;;;;;;;;;;5011699;28;20033;-78
2023/05/14 03:17:18;;;;;;;3.50;3.20;;;;;;;;;;5012664;28;20048;-78
2023/05/14 03:19:44;;;;;;;5.97;3.17;;;;;;;;;;5011514;28;20030;-75
2023/05/14 03:22:10;;;;;;;3.30;2.97;;;;;;;;;;5011012;28;20057;-78
2023/05/14 03:24:37;;;;;;;3.55;2.80;;;;;;;;;;5011283;28;20034;-77
2023/05/14 03:27:04;;;;;;;7.45;3.10;;;;;;;;;;5010988;28;20492;-77
2023/05/14 03:29:30;;;;;;;3.72;3.13;;;;;;;;;;5012622;28;20125;-78
2023/05/14 03:31:56;;;;;;;3.13;2.92;;;;;;;;;;4995049;28;20540;-77
2023/05/14 03:34:23;;;;;;;3.88;3.15;;;;;;;;;;5011369;28;20393;-78
2023/05/14 03:36:49;;;;;;;4.85;2.92;;;;;;;;;;5011666;28;20038;-77
2023/05/14 03:39:18;;;;;;;5.93;3.22;;;;;;;;;;4994902;28;20431;-78
2023/05/14 03:41:45;;;;;;;3.50;2.75;;;;;;;;;;5011066;28;20057;-76
2023/05/14 03:44:12;;;;;;;5.50;3.20;;;;;;;;;;5010886;28;20037;-77
2023/05/14 03:46:38;;;;;;;4.22;2.95;;;;;;;;;;4994803;28;20030;-77
2023/05/14 03:49:05;;;;;;;3.33;2.90;;;;;;;;;;5011322;28;20642;-77
2023/05/14 03:51:31;;;;;;;5.57;2.70;;;;;;;;;;5011256;28;20048;-77
2023/05/14 03:53:57;;;;;;;3.40;3.10;;;;;;;;;;5010787;28;20034;-77
2023/05/14 03:56:23;;;;;;;3.35;3.15;;;;;;;;;;5010868;28;20041;-76
2023/05/14 03:58:49;;;;;;;3.22;2.80;;;;;;;;;;5010701;28;20033;-76
2023/05/14 04:01:15;;;;;;;3.85;3.20;;;;;;;;;;4978341;28;20046;-76
2023/05/14 04:03:41;;;;;;;5.22;2.67;;;;;;;;;;5011938;28;20108;-76
2023/05/14 04:06:07;;;;;;;3.03;2.70;;;;;;;;;;4994050;28;20462;-77
2023/05/14 04:08:34;;;;;;;3.30;2.72;;;;;;;;;;4994940;28;20041;-77
2023/05/14 04:11:00;;;;;;;2.65;2.42;;;;;;;;;;5010696;28;20042;-78
2023/05/14 04:13:26;;;;;;;3.92;2.30;;;;;;;;;;5009862;28;20129;-76
2023/05/14 04:15:53;;;;;;;6.90;2.60;;;;;;;;;;5010738;28;20042;-77
2023/05/14 04:18:19;;;;;;;6.70;2.80;;;;;;;;;;5011476;28;20049;-77
2023/05/14 04:20:45;;;;;;;7.38;2.60;;;;;;;;;;5011807;28;20033;-77
2023/05/14 04:23:11;;;;;;;2.75;2.55;;;;;;;;;;5011532;28;20459;-76
2023/05/14 04:25:37;;;;;;;3.92;2.40;;;;;;;;;;5011712;28;20311;-77
2023/05/14 04:28:03;;;;;;;2.55;2.35;;;;;;;;;;5011946;28;20081;-77
2023/05/14 04:30:29;;;;;;;6.85;2.78;;;;;;;;;;5020058;28;20025;-75
2023/05/14 04:32:56;;;;;;;6.15;2.50;;;;;;;;;;5027091;28;20016;-77
2023/05/14 04:35:22;;;;;;;4.45;2.70;;;;;;;;;;5023736;28;20041;-78
2023/05/14 04:37:48;;;;;;;3.60;2.60;;;;;;;;;;5020782;28;20416;-77
2023/05/14 04:40:17;;;;;;;2.60;2.40;;;;;;;;;;5023252;28;20034;-77
2023/05/14 04:42:44;;;;;;;3.05;2.60;;;;;;;;;;5021931;28;20263;-79
2023/05/14 04:45:11;;;;;;;7.15;2.30;;;;;;;;;;5003213;28;20056;-76
2023/05/14 04:47:37;;;;;;;3.45;2.38;;;;;;;;;;4995418;28;20050;-78
2023/05/14 04:50:03;;;;;;;4.57;2.47;;;;;;;;;;5015387;28;20086;-79
2023/05/14 04:52:30;;;;;;;5.45;2.65;;;;;;;;;;5021091;28;20042;-80
2023/05/14 04:54:56;;;;;;;3.10;2.80;;;;;;;;;;5009929;28;20061;-78
2023/05/14 04:57:22;;;;;;;5.82;2.75;;;;;;;;;;5014185;28;20463;-80
2023/05/14 04:59:48;;;;;;;6.38;2.70;;;;;;;;;;5009942;28;20034;-78
2023/05/14 05:02:14;;;;;;;8.57;2.67;;;;;;;;;;5013571;28;20077;-81
2023/05/14 05:04:40;;;;;;;4.38;2.40;;;;;;;;;;5017889;28;20096;-79
2023/05/14 05:07:06;;;;;;;4.53;3.20;;;;;;;;;;5011013;28;20075;-76
2023/05/14 05:09:32;;;;;;;3.20;2.50;;;;;;;;;;5010895;28;20112;-77
2023/05/14 05:12:00;;;;;;;2.85;2.35;;;;;;;;;;5012293;28;20040;-79
2023/05/14 05:14:26;;;;;;;3.10;2.08;;;;;;;;;;5025320;28;20042;-81
2023/05/14 05:16:52;;;;;;;2.72;2.53;;;;;;;;;;4982401;28;20562;-79
2023/05/14 05:19:18;;;;;;;4.32;2.38;;;;;;;;;;5006753;28;20030;-77
2023/05/14 05:21:44;;;;;;;2.95;2.65;;;;;;;;;;4992792;28;20128;-78
2023/05/14 05:24:12;;;;;;;3.67;2.10;;;;;;;;;;4992554;28;20132;-78
2023/05/14 05:26:38;;;;;;;2.28;2.17;;;;;;;;;;5010158;28;20025;-77
2023/05/14 05:29:04;;;;;;;4.28;2.40;;;;;;;;;;5009786;28;20050;-77
2023/05/14 05:31:30;;;;;;;4.68;2.30;;;;;;;;;;5011645;28;20163;-77
2023/05/14 05:33:57;;;;;;;3.53;2.40;;;;;;;;;;5015615;28;20042;-77
2023/05/14 05:36:24;;;;;;;3.70;2.08;;;;;;;;;;5016384;28;20042;-79
2023/05/14 05:38:50;;;;;;;4.32;2.00;;;;;;;;;;5026117;28;20040;-75
2023/05/14 05:41:16;;;;;;;3.15;2.05;;;;;;;;;;5012661;28;20416;-77
2023/05/14 05:43:42;;;;;;;4.75;2.22;;;;;;;;;;5032451;28;20029;-78
2023/05/14 05:58:03;;;;;;;1.90;1.80;;;;;;;;;;5104448;27;20157;-78
2023/05/14 06:00:30;;;;;;;2.10;1.95;;;;;;;;;;5082856;28;20059;-77
2023/05/14 06:02:55;;;;;;;4.32;2.00;;;;;;;;;;5083753;28;20530;-78
2023/05/14 06:05:22;;;;;;;3.88;2.13;;;;;;;;;;5065983;28;20043;-79
2023/05/14 06:07:48;;;;;;;2.28;2.00;;;;;;;;;;5083675;28;20051;-78
2023/05/14 06:10:14;;;;;;;2.30;2.10;;;;;;;;;;5066226;28;20028;-79
2023/05/14 06:12:40;;;;;;;1.90;1.80;;;;;;;;;;5083839;28;20047;-79
2023/05/14 06:15:06;;;;;;;1.60;1.60;;;;;;;;;;5084223;28;20039;-79
2023/05/14 06:17:33;;;;;;;5.60;1.85;;;;;;;;;;5083927;28;20503;-78
2023/05/14 06:19:59;;;;;;;2.60;1.65;;;;;;;;;;5084265;28;20111;-79
2023/05/14 06:22:25;;;;;;;1.65;1.55;;;;;;;;;;5083941;28;20099;-78
2023/05/14 06:24:51;;;;;;;1.75;1.65;;;;;;;;;;5084345;28;20039;-77
2023/05/14 06:27:17;;;;;;;2.17;1.98;;;;;;;;;;5066392;28;20059;-77
2023/05/14 06:29:43;;;;;;;2.08;1.90;;;;;;;;;;5083803;28;20037;-78
2023/05/14 06:32:09;;;;;;;2.70;1.80;;;;;;;;;;5084313;28;20407;-78
2023/05/14 06:34:35;;;;;;;6.60;1.80;;;;;;;;;;5065874;28;20037;-77
2023/05/14 06:37:02;;;;;;;9.43;2.10;;;;;;;;;;5066467;28;20067;-79
2023/05/14 06:39:29;;;;;;;2.25;1.73;;;;;;;;;;5049104;28;20495;-78
2023/05/14 06:41:55;;;;;;;7.15;1.80;;;;;;;;;;5066269;28;20040;-78
2023/05/14 06:44:22;;;;;;;2.25;1.98;;;;;;;;;;5066693;28;20028;-78
2023/05/14 06:46:48;;;;;;;2.00;1.90;;;;;;;;;;5084823;28;20044;-78
2023/05/14 06:49:15;;;;;;;2.05;1.92;;;;;;;;;;5086769;28;20517;-78
2023/05/14 06:51:41;;;;;;;2.88;2.00;;;;;;;;;;5090551;28;20036;-76
2023/05/14 07:07:45;;;;;;;3.45;1.92;;;;;;;;;;5173620;27;20420;-81
2023/05/14 07:10:11;;;;;;;2.50;1.85;;;;;;;;;;5148617;27;20092;-81
2023/05/14 07:12:37;;;;;;;1.50;1.50;;;;;;;;;;5151071;27;20034;-81
2023/05/14 07:15:04;;;;;;;1.80;1.70;;;;;;;;;;5163560;27;20038;-82
2023/05/14 07:17:32;;;;;;;2.22;1.58;;;;;;;;;;5171017;27;20142;-81
2023/05/14 07:19:58;;;;;;;5.57;1.63;;;;;;;;;;5175300;27;20156;-81
2023/05/14 07:22:24;;;;;;;1.90;1.80;;;;;;;;;;5161924;27;20500;-81
2023/05/14 07:24:50;;;;;;;1.90;1.80;;;;;;;;;;5177581;27;20045;-80
2023/05/14 07:27:16;;;;;;;3.63;1.48;;;;;;;;;;5156586;27;20041;-79
2023/05/14 07:29:42;;;;;;;1.60;1.50;;;;;;;;;;5169497;27;20725;-81
2023/05/14 07:32:08;;;;;;;3.13;1.42;;;;;;;;;;5169311;27;20022;-81
2023/05/14 07:34:34;;;;;;;2.47;1.90;;;;;;;;;;5168676;27;20045;-81
2023/05/14 07:37:01;;;;;;;1.48;1.48;;;;;;;;;;5161058;27;20566;-80
2023/05/14 07:39:27;;;;;;;1.77;1.67;;;;;;;;;;5118893;27;20050;-78
2023/05/14 07:41:56;;;;;;;3.30;1.80;;;;;;;;;;5168942;27;20057;-80
2023/05/14 07:44:22;;;;;;;1.50;1.50;;;;;;;;;;5157643;27;20043;-81
2023/05/14 07:46:47;;;;;;;12.95;1.75;;;;;;;;;;5170927;27;20126;-80
2023/05/14 07:49:13;;;;;;;3.80;1.70;;;;;;;;;;5170368;27;20095;-80
2023/05/14 07:51:39;;;;;;;1.95;1.85;;;;;;;;;;5170590;27;20055;-79
2023/05/14 07:54:10;;;;;;;4.85;1.80;;;;;;;;;;5133567;27;20034;-81
2023/05/14 07:56:36;;;;;;;2.10;2.00;;;;;;;;;;5124795;27;20039;-80
2023/05/14 07:59:02;;;;;;;1.80;1.70;;;;;;;;;;5115675;27;20035;-80
2023/05/14 08:01:30;;;;;;;3.80;2.08;;;;;;;;;;5138505;27;20031;-80
2023/05/14 08:03:56;;;;;;;2.97;1.60;;;;;;;;;;5133476;27;20043;-80
2023/05/14 08:06:23;;;;;;;2.00;1.90;;;;;;;;;;5139482;27;20324;-81
2023/05/14 08:08:49;;;;;;;1.98;1.90;;;;;;;;;;5117147;27;20039;-78
2023/05/14 08:11:15;;;;;;;1.95;1.60;;;;;;;;;;5116806;27;20031;-80
2023/05/14 08:13:42;;;;;;;2.33;1.60;;;;;;;;;;5118352;27;20059;-80
2023/05/14 08:16:08;;;;;;;1.50;1.40;;;;;;;;;;5127148;27;20094;-80
2023/05/14 08:18:34;;;;;;;2.95;1.52;;;;;;;;;;5128121;27;20039;-79
2023/05/14 08:21:00;;;;;;;1.52;1.50;;;;;;;;;;5107587;28;20059;-81
2023/05/14 08:23:26;;;;;;;4.65;1.42;;;;;;;;;;5132074;27;20038;-80
2023/05/14 08:25:52;;;;;;;1.38;1.30;;;;;;;;;;5116419;28;20028;-81
2023/05/14 08:28:18;;;;;;;4.63;1.55;;;;;;;;;;5104663;27;20049;-80
2023/05/14 08:30:44;;;;;;;1.38;1.35;;;;;;;;;;5111734;28;20131;-80
2023/05/14 08:33:10;;;;;;;1.60;1.50;;;;;;;;;;5125329;27;20042;-80
2023/05/14 08:35:36;;;;;;;2.42;1.52;;;;;;;;;;5115960;27;20126;-79
2023/05/14 08:38:02;;;;;;;2.50;1.58;;;;;;;;;;5114887;27;20075;-78
2023/05/14 08:40:28;;;;;;;3.83;2.20;;;;;;;;;;5134744;27;20031;-80
2023/05/14 08:42:55;;;;;;;3.75;2.50;;;;;;;;;;5137710;27;20067;-79
2023/05/14 08:45:21;;;;;;;2.45;2.25;;;;;;;;;;5130298;27;20042;-80
2023/05/14 08:47:49;;;;;;;4.78;1.77;;;;;;;;;;5122171;27;20047;-83
2023/05/14 08:50:15;;;;;;;5.10;2.20;;;;;;;;;;5137779;27;20039;-82
2023/05/14 08:52:41;;;;;;;2.10;2.00;;;;;;;;;;5125802;27;20054;-83
2023/05/14 08:55:08;;;;;;;4.78;2.17;;;;;;;;;;5143487;27;20038;-81
2023/05/14 08:57:34;;;;;;;6.88;2.38;;;;;;;;;;5128105;28;20035;-82
2023/05/14 09:00:00;;;;;;;4.60;1.52;;;;;;;;;;5122097;27;20000;-83
2023/05/14 09:02:30;;;;;;;5.55;2.53;;;;;;;;;;5127655;27;20035;-79
2023/05/14 09:04:56;;;;;;;4.57;2.00;;;;;;;;;;5109758;27;20037;-81
2023/05/14 09:07:22;;;;;;;1.58;1.58;;;;;;;;;;5123710;27;20049;-79
2023/05/14 09:09:49;;;;;;;1.50;1.40;;;;;;;;;;5128741;27;20035;-78
2023/05/14 09:12:15;;;;;;;1.58;1.50;;;;;;;;;;5099936;28;20038;-80
2023/05/14 09:14:41;;;;;;;2.97;1.70;;;;;;;;;;5118587;28;20067;-78
2023/05/14 09:17:08;;;;;;;1.92;1.60;;;;;;;;;;5124558;27;20047;-83
2023/05/14 09:19:34;;;;;;;2.08;1.70;;;;;;;;;;5123061;27;20058;-83
2023/05/14 09:22:00;;;;;;;2.00;1.90;;;;;;;;;;5130907;28;20032;-82
2023/05/14 09:24:29;;;;;;;5.00;1.77;;;;;;;;;;5129238;27;20031;-81
2023/05/14 09:26:56;;;;;;;1.75;1.60;;;;;;;;;;5138003;27;20022;-80
2023/05/14 09:29:27;;;;;;;2.00;1.77;;;;;;;;;;5141387;27;20057;-82
2023/05/14 09:31:54;;;;;;;3.50;1.80;;;;;;;;;;5124181;28;20039;-82
2023/05/14 09:34:25;;;;;;;2.08;1.75;;;;;;;;;;5119096;28;20063;-83
2023/05/14 09:36:56;;;;;;;1.55;1.45;;;;;;;;;;5138106;28;20019;-82
2023/05/14 09:39:25;;;;;;;3.08;1.52;;;;;;;;;;5140816;27;20031;-84
2023/05/14 09:41:52;;;;;;;6.63;1.70;;;;;;;;;;5291465;22;20848;-81
2023/05/14 09:44:19;;;;;;;2.13;1.40;;;;;;;;;;5058032;28;20500;-82
2023/05/14 09:46:45;;;;;;;2.25;1.65;;;;;;;;;;5063228;28;20044;-81
2023/05/14 09:49:11;;;;;;;1.90;1.80;;;;;;;;;;5059328;28;20037;-81
2023/05/14 09:51:37;;;;;;;2.50;1.60;;;;;;;;;;5055637;28;20097;-80
2023/05/14 09:54:04;;;;;;;1.55;1.55;;;;;;;;;;5022821;28;20029;-81
2023/05/14 09:56:34;;;;;;;1.98;1.80;;;;;;;;;;5010938;28;20049;-82
2023/05/14 09:59:00;;;;;;;1.70;1.60;;;;;;;;;;5042355;28;20048;-80
2023/05/14 10:01:27;;;;;;;8.57;1.45;;;;;;;;;;5031196;28;20063;-80
2023/05/14 10:03:53;;;;;;;2.42;1.60;;;;;;;;;;5031935;28;20037;-79
2023/05/14 10:06:21;;;;;;;2.30;1.80;;;;;;;;;;5015436;28;20453;-80
2023/05/14 10:08:47;;;;;;;1.75;1.65;;;;;;;;;;5017440;28;20519;-80
2023/05/14 10:11:23;;;;;;;1.55;1.40;;;;;;;;;;5035628;28;20037;-81
2023/05/14 10:14:02;;;;;;;1.45;1.17;;;;;;;;;;5032311;28;20064;-78
2023/05/14 10:16:33;;;;;;;3.15;1.50;;;;;;;;;;5031170;28;20128;-82
2023/05/14 10:19:08;;;;;;;2.45;1.27;;;;;;;;;;5019461;28;20030;-79
2023/05/14 10:21:35;;;;;;;1.70;1.50;;;;;;;;;;5041904;28;20033;-80
2023/05/14 10:24:03;;;;;;;1.85;1.40;;;;;;;;;;5015356;28;20036;-80
2023/05/14 10:26:29;;;;;;;4.13;1.38;;;;;;;;;;5032805;28;20094;-79
2023/05/14 10:28:55;;;;;;;4.38;1.27;;;;;;;;;;5013836;28;20033;-80
2023/05/14 10:31:42;;;;;;;4.20;1.88;;;;;;;;;;5030860;28;20068;-80
2023/05/14 10:34:19;;;;;;;6.82;1.77;;;;;;;;;;5013089;28;20038;-79
2023/05/14 10:36:45;;;;;;;4.05;3.20;;;;;;;;;;5030279;28;20045;-79
2023/05/14 10:39:12;;;;;;;1.60;1.60;;;;;;;;;;5012845;28;20036;-79
2023/05/14 10:41:37;;;;;;;4.40;2.25;;;;;;;;;;5030149;28;20041;-80
2023/05/14 10:44:07;;;;;;;4.72;2.30;;;;;;;;;;5030177;28;20049;-80
2023/05/14 10:46:33;;;;;;;3.65;3.25;;;;;;;;;;5012549;28;20416;-79
2023/05/14 10:48:59;;;;;;;2.55;1.80;;;;;;;;;;5029021;28;20040;-79
2023/05/14 10:51:25;;;;;;;1.70;1.60;;;;;;;;;;5030537;28;20041;-80
2023/05/14 10:53:51;;;;;;;1.40;1.30;;;;;;;;;;5029075;28;20026;-80
2023/05/14 10:56:18;;;;;;;1.80;1.70;;;;;;;;;;5012966;28;20049;-79
2023/05/14 10:58:45;;;;;;;2.25;2.10;;;;;;;;;;5028938;28;20536;-80
2023/05/14 11:01:11;;;;;;;1.60;1.50;;;;;;;;;;5030566;28;20037;-79
2023/05/14 11:03:43;;;;;;;2.22;2.08;;;;;;;;;;5030235;28;20297;-80
2023/05/14 11:06:10;;;;;;;1.30;1.20;;;;;;;;;;5029693;28;20065;-81
2023/05/14 11:08:36;;;;;;;3.92;1.60;;;;;;;;;;4996825;28;20505;-79
2023/05/14 11:11:02;;;;;;;1.83;1.50;;;;;;;;;;4996405;28;20392;-80
2023/05/14 11:13:29;;;;;;;2.10;1.92;;;;;;;;;;5030369;28;20033;-80
2023/05/14 11:15:55;;;;;;;1.80;1.70;;;;;;;;;;5012514;28;20416;-80
2023/05/14 11:18:27;;;;;;;3.10;1.90;;;;;;;;;;5012872;28;20124;-79
2023/05/14 11:20:57;;;;;;;2.83;2.47;;;;;;;;;;4996082;28;20520;-79
2023/05/14 11:23:24;;;;;;;3.45;1.95;;;;;;;;;;5013343;28;20073;-80
2023/05/14 11:25:51;;;;;;;2.42;1.88;;;;;;;;;;5032810;28;20037;-78
2023/05/14 11:28:17;;;;;;;1.58;1.38;;;;;;;;;;5030071;28;20033;-79
2023/05/14 11:30:43;;;;;;;3.63;1.90;;;;;;;;;;5029825;28;20032;-80
2023/05/14 11:33:09;;;;;;;2.30;1.40;;;;;;;;;;4996033;28;20048;-80
2023/05/14 11:35:36;;;;;;;3.20;1.63;;;;;;;;;;5030312;28;20046;-78
2023/05/14 11:38:02;;;;;;;2.45;1.60;;;;;;;;;;5012558;28;20041;-80
2023/05/14 11:40:27;;;;;;;2.22;1.88;;;;;;;;;;4996167;28;20035;-79
2023/05/14 11:42:53;;;;;;;3.90;1.50;;;;;;;;;;5031018;28;20057;-79
2023/05/14 11:45:24;;;;;;;2.42;2.10;;;;;;;;;;5033960;28;20030;-80
2023/05/14 11:47:51;;;;;;;7.03;2.10;;;;;;;;;;5032531;28;20045;-79
2023/05/14 11:50:17;;;;;;;2.47;1.52;;;;;;;;;;5015943;28;20501;-80
2023/05/14 11:52:43;;;;;;;4.63;1.88;;;;;;;;;;5016062;28;20114;-80
2023/05/14 11:55:10;;;;;;;1.85;1.77;;;;;;;;;;5033615;28;20034;-80
2023/05/14 11:57:36;;;;;;;2.92;1.80;;;;;;;;;;5015360;28;20567;-79
2023/05/14 12:00:05;;;;;;;12.68;2.17;;;;;;;;;;5014085;28;20449;-78
2023/05/14 12:02:31;;;;;;;1.98;1.75;;;;;;;;;;4996535;28;20145;-80
2023/05/14 12:04:58;;;;;;;6.75;1.65;;;;;;;;;;4996508;28;20057;-80
2023/05/14 12:07:27;;;;;;;2.22;2.03;;;;;;;;;;5015907;28;20030;-80
2023/05/14 12:09:53;;;;;;;3.53;1.50;;;;;;;;;;5003200;28;20601;-79
2023/05/14 12:12:20;;;;;;;11.23;2.10;;;;;;;;;;4997456;28;20156;-79
2023/05/14 12:14:46;;;;;;;1.60;1.50;;;;;;;;;;5014421;28;20125;-79
2023/05/14 12:17:13;;;;;;;2.63;1.95;;;;;;;;;;4996122;28;20056;-79
2023/05/14 12:19:40;;;;;;;4.85;1.90;;;;;;;;;;5011924;28;20506;-79
2023/05/14 12:22:07;;;;;;;1.50;1.50;;;;;;;;;;4997654;28;20022;-80
2023/05/14 12:24:33;;;;;;;5.88;1.75;;;;;;;;;;5000543;28;20057;-78
2023/05/14 12:27:00;;;;;;;1.70;1.60;;;;;;;;;;5004688;28;20042;-80
2023/05/14 12:29:26;;;;;;;3.15;2.00;;;;;;;;;;5024651;28;20087;-79
2023/05/14 12:31:52;;;;;;;2.45;2.28;;;;;;;;;;4966213;28;20042;-79
2023/05/14 12:34:18;;;;;;;5.70;2.67;;;;;;;;;;4997109;28;20123;-81
2023/05/14 12:36:44;;;;;;;4.85;2.22;;;;;;;;;;5013419;28;20095;-80
2023/05/14 12:39:11;;;;;;;5.25;1.73;;;;;;;;;;4995988;28;20678;-80
2023/05/14 12:41:37;;;;;;;3.33;2.00;;;;;;;;;;4995248;28;20041;-81
2023/05/14 12:44:03;;;;;;;3.95;1.70;;;;;;;;;;4979702;28;20076;-80
2023/05/14 12:46:29;;;;;;;4.78;1.88;;;;;;;;;;4995923;28;20073;-80
2023/05/14 12:48:56;;;;;;;4.45;2.25;;;;;;;;;;4978995;28;20037;-80
2023/05/14 12:51:22;;;;;;;6.65;3.55;;;;;;;;;;4978854;28;20046;-79
2023/05/14 12:53:49;;;;;;;2.97;2.25;;;;;;;;;;4995910;28;20052;-81
2023/05/14 12:56:15;;;;;;;4.63;1.90;;;;;;;;;;5013987;28;20042;-79
2023/05/14 12:58:41;;;;;;;2.55;2.20;;;;;;;;;;5000094;28;20456;-78
2023/05/14 13:01:07;;;;;;;2.40;1.88;;;;;;;;;;5013656;28;20042;-81
2023/05/14 13:03:33;;;;;;;2.55;2.08;;;;;;;;;;5012720;28;20057;-80
2023/05/14 13:06:00;;;;;;;6.55;2.15;;;;;;;;;;5012579;28;20033;-80
2023/05/14 13:08:27;;;;;;;2.30;2.20;;;;;;;;;;5011370;28;20461;-80
2023/05/14 13:10:53;;;;;;;4.68;2.58;;;;;;;;;;5010966;28;20112;-80
2023/05/14 13:13:19;;;;;;;4.88;2.08;;;;;;;;;;5012214;28;20057;-79
2023/05/14 13:15:45;;;;;;;2.17;2.08;;;;;;;;;;5011750;28;20080;-79
2023/05/14 13:18:14;;;;;;;3.20;1.90;;;;;;;;;;4994877;28;20510;-78
2023/05/14 13:20:41;;;;;;;2.20;2.00;;;;;;;;;;4994032;28;20045;-79
2023/05/14 13:23:07;;;;;;;2.40;2.17;;;;;;;;;;4994617;28;20034;-79
2023/05/14 13:25:33;;;;;;;2.75;2.05;;;;;;;;;;4995927;28;20115;-79
2023/05/14 13:27:59;;;;;;;4.20;2.85;;;;;;;;;;4994333;28;20033;-79
2023/05/14 13:30:25;;;;;;;3.58;2.08;;;;;;;;;;4994597;28;20050;-79
2023/05/14 13:32:51;;;;;;;2.10;2.00;;;;;;;;;;4994318;28;20064;-78
2023/05/14 13:35:17;;;;;;;5.10;1.98;;;;;;;;;;4994146;28;20080;-78
2023/05/14 13:37:43;;;;;;;3.70;2.35;;;;;;;;;;5011456;28;20087;-79
2023/05/14 13:40:09;;;;;;;3.17;2.10;;;;;;;;;;4993957;28;20038;-78
2023/05/14 13:42:35;;;;;;;5.18;2.50;;;;;;;;;;5011171;28;20526;-80
2023/05/14 13:45:02;;;;;;;3.85;2.20;;;;;;;;;;4977952;28;20034;-78
2023/05/14 13:47:31;;;;;;;4.60;2.00;;;;;;;;;;5011361;28;20557;-76
2023/05/14 13:49:57;;;;;;;1.85;1.75;;;;;;;;;;5009878;28;20068;-79
2023/05/14 13:52:24;;;;;;;2.63;2.42;;;;;;;;;;5011654;28;20520;-79
2023/05/14 13:54:52;;;;;;;8.52;2.40;;;;;;;;;;5013711;28;20111;-79
2023/05/14 13:57:18;;;;;;;5.07;2.40;;;;;;;;;;5019804;28;20048;-79
2023/05/14 13:59:45;;;;;;;3.83;2.03;;;;;;;;;;4998442;28;20453;-79
2023/05/14 14:02:11;;;;;;;4.72;3.90;;;;;;;;;;5015330;28;20041;-77
2023/05/14 14:04:39;;;;;;;2.40;2.08;;;;;;;;;;5030332;28;20045;-77
2023/05/14 14:07:05;;;;;;;3.30;2.10;;;;;;;;;;5032280;28;20032;-79
2023/05/14 14:09:34;;;;;;;2.92;2.00;;;;;;;;;;5030824;28;20095;-79
2023/05/14 14:12:03;;;;;;;1.95;1.85;;;;;;;;;;5029472;28;20131;-80
2023/05/14 14:14:29;;;;;;;3.60;2.25;;;;;;;;;;5030835;28;20037;-78
2023/05/14 14:16:56;;;;;;;4.43;2.60;;;;;;;;;;5030384;28;20103;-78
2023/05/14 14:19:22;;;;;;;2.80;2.45;;;;;;;;;;5029501;28;20037;-79
2023/05/14 14:21:48;;;;;;;2.33;1.90;;;;;;;;;;5029741;28;20040;-80
2023/05/14 14:24:14;;;;;;;2.08;1.98;;;;;;;;;;5013073;28;20120;-78
2023/05/14 14:26:40;;;;;;;3.15;2.20;;;;;;;;;;5031402;28;20547;-78
2023/05/14 14:29:06;;;;;;;3.63;2.00;;;;;;;;;;5030704;28;20033;-78
2023/05/14 14:31:33;;;;;;;4.63;2.10;;;;;;;;;;5030708;28;20128;-77
2023/05/14 14:33:59;;;;;;;3.47;3.28;;;;;;;;;;5030268;28;20063;-79
2023/05/14 14:36:25;;;;;;;5.25;2.45;;;;;;;;;;5030951;28;20571;-79
2023/05/14 14:38:51;;;;;;;2.38;2.20;;;;;;;;;;5012634;28;20165;-77
2023/05/14 14:41:17;;;;;;;3.13;2.20;;;;;;;;;;5030304;28;20041;-78
2023/05/14 14:43:44;;;;;;;5.53;2.10;;;;;;;;;;5029080;28;20057;-79
2023/05/14 14:46:10;;;;;;;2.47;2.38;;;;;;;;;;5029476;28;20038;-79
2023/05/14 14:48:36;;;;;;;2.05;1.95;;;;;;;;;;5030701;28;20045;-79
2023/05/14 14:51:03;;;;;;;10.68;2.08;;;;;;;;;;5029200;28;20038;-78
2023/05/14 14:53:29;;;;;;;5.25;2.10;;;;;;;;;;5012646;28;20033;-79
2023/05/14 14:55:57;;;;;;;5.72;2.03;;;;;;;;;;5030067;28;20065;-79
2023/05/14 14:58:23;;;;;;;3.58;2.17;;;;;;;;;;5028852;28;20037;-78
2023/05/14 15:00:50;;;;;;;2.30;2.20;;;;;;;;;;5012196;28;20064;-79
2023/05/14 15:03:16;;;;;;;2.28;2.13;;;;;;;;;;5029114;28;20049;-79
2023/05/14 15:05:42;;;;;;;5.70;2.40;;;;;;;;;;5028692;28;20025;-79